GMMX Informações do Aeroporto

Informações da Pista
Pista 10 Comprimento 10170 ft Largura 148 ft
Elevação 1506 ft Limite 918 ft Heading 96
Pista 28 Comprimento 10170 ft Largura 148 ft
Elevação 1545 ft Limite 0 ft Heading 276
Frequências do Aeroporto
Tipo APP Nome MARRAKECH Frequência 119.7 MHZ
Tipo TWR Nome MARRAKECH Frequência 118.7 MHZ
Navaids do Aeroporto
Tipo NDB Nome Marrakech Frequência 267 KHZ
Tipo VOR-DME Nome Marrakech Frequência 113300 KHZ
Informações meteorológicas do aeroporto e NOTAM
ADDS - METARS form results

(2124 UTC 07 December 2019)
Data provider http://aviationweather.gov/metar/data/
 
METAR text: GMMX 072100Z 10003KT 9999 SCT026 13/10 Q1024 NOSIG
Conditions at: GMMX (MARRAKECH/MENARA, MA) observed 2100 UTC 07 December 2019
Temperature: 13.0°C (55°F)
Dewpoint: 10.0°C (50°F) [RH = 82%]
Pressure (altimeter): 30.24 inches Hg (1024.0 mb)
Winds: from the E (100 degrees) at 3 MPH (3 knots; 1.5 m/s)
Visibility: 6 or more miles (10+ km)
Ceiling: at least 12,000 feet AGL
Clouds: scattered clouds at 2600 feet AGL
Weather: no significant weather observed at this time

METAR text: GMMX 072030Z 09003KT 9999 SCT026 13/10 Q1024 NOSIG
Conditions at: GMMX (MARRAKECH/MENARA, MA) observed 2030 UTC 07 December 2019
Temperature: 13.0°C (55°F)
Dewpoint: 10.0°C (50°F) [RH = 82%]
Pressure (altimeter): 30.24 inches Hg (1024.0 mb)
Winds: from the E (90 degrees) at 3 MPH (3 knots; 1.5 m/s)
Visibility: 6 or more miles (10+ km)
Ceiling: at least 12,000 feet AGL
Clouds: scattered clouds at 2600 feet AGL
Weather: no significant weather observed at this time

Forecast for: GMMX (MARRAKECH/MENARA, MA)
Text: TAF GMMX 071100Z 0712/0818 12006KT 8000 SCT023
Forecast period: 1200 UTC 07 December 2019 to 1800 UTC 08 December 2019
Forecast type: FROM: standard forecast or significant change
Winds: from the ESE (120 degrees) at 7 MPH (6 knots; 3.1 m/s)
Visibility: 5 miles (8 km)
Ceiling: at least 12,000 feet AGL
Clouds: scattered clouds at 2300 feet AGL
Weather: no significant weather forecast for this period
Text: TEMPO 0715/0722 32016KT BKN023
Forecast period: 1500 to 2200 UTC 07 December 2019
Forecast type: TEMPORARY: The following changes expected for less than half the time period
Winds: from the NW (320 degrees) at 18 MPH (16 knots; 8.2 m/s)
Visibility: missing
Ceiling: 2300 feet AGL
Clouds: broken clouds at 2300 feet AGL
Weather: no significant weather forecast for this period